Antonios — SY8410 — position and weather

sailwx.info

Track history (hours):
 
Tides and Currents Weather Stations Pressure Air Temp Water Temp Dewpoint Dewpoint Depression Visibility Wind Speed Wind Dir Waves Ship Positions

Antonios

Last reported at 2017-Feb-10 08:27 UTC. Time now 2017-Feb-25 13:49 UTC.
Position N 37°10' E 025°48'.
Warning: this ship's position is 15 days out of date.

Length 57 m; draft 4 m.

Type: Tanker. MMSI: 239191300.

Date/timePositionNaut miles runAvg speedWind from/ knotsBaromVisibWave heightAir tempDewpointWater temp
2017-Feb-10 08:27N 37°10' E 025°48'17 9.2
2017-Feb-10 06:33N 37°14' E 025°26'9 9.1
2017-Feb-10 05:33N 37°16' E 025°15'18 9.2
2017-Feb-10 03:33N 37°21' E 024°53'37 9.2
2017-Feb-09 23:30N 37°31' E 024°08'11 8.1
2017-Feb-09 22:07N 37°35' E 023°55'6 9.1
2017-Feb-09 21:28N 37°37' E 023°48'8 8.7
2017-Feb-09 20:33N 37°43' E 023°41'9 9.0
2017-Feb-09 19:33N 37°49' E 023°33'10 9.7
2017-Feb-09 18:33N 37°51' E 023°21'9 9.2
2017-Feb-09 17:33N 37°54' E 023°09'4 3.5
2017-Feb-09 16:34N 37°55' E 023°05'0 0.0
2017-Feb-09 15:33N 37°55' E 023°05'0 0.0
2017-Feb-09 14:33N 37°55' E 023°05'0 0.0
2017-Feb-09 13:34N 37°55' E 023°05'0 0.0
2017-Feb-09 12:33N 37°55' E 023°05'0 0.0
2017-Feb-09 11:33N 37°55' E 023°05'0 0.0
2017-Feb-09 10:33N 37°55' E 023°05'1 0.8
2017-Feb-09 09:33N 37°54' E 023°06'0 0.4
2017-Feb-09 08:33N 37°55' E 023°06'7 7.3
2017-Feb-09 07:32N 37°49' E 023°12'1010.3
2017-Feb-09 06:34N 37°40' E 023°18'1010.3
2017-Feb-09 05:33N 37°39' E 023°31'1010.3
2017-Feb-09 04:33N 37°37' E 023°44'1310.3
2017-Feb-09 03:16N 37°35' E 024°01'8 9.7
2017-Feb-09 02:28N 37°33' E 024°10'38 9.7
2017-Feb-08 22:33N 37°20' E 024°55'10 9.8
2017-Feb-08 21:33N 37°18' E 025°07'10 9.7
2017-Feb-08 20:33N 37°16' E 025°19'18 9.1
2017-Feb-08 18:33N 37°12' E 025°41'  
Track history (hours):
 
Tides and Currents Weather Stations Pressure Air Temp Water Temp Dewpoint Dewpoint Depression Visibility Wind Speed Wind Dir Waves Ship Positions

Antonios

Last reported at 2017-Feb-10 08:27 UTC. Time now 2017-Feb-25 13:49 UTC.
Position N 37°10' E 025°48'.
Warning: this ship's position is 15 days out of date.

Length 57 m; draft 4 m.

Type: Tanker. MMSI: 239191300.

Date/timePositionNaut miles runAvg speedWind from/ knotsBaromVisibWave heightAir tempDewpointWater temp
2017-Feb-10 08:27N 37°10' E 025°48'17 9.2
2017-Feb-10 06:33N 37°14' E 025°26'9 9.1
2017-Feb-10 05:33N 37°16' E 025°15'18 9.2
2017-Feb-10 03:33N 37°21' E 024°53'37 9.2
2017-Feb-09 23:30N 37°31' E 024°08'11 8.1
2017-Feb-09 22:07N 37°35' E 023°55'6 9.1
2017-Feb-09 21:28N 37°37' E 023°48'8 8.7
2017-Feb-09 20:33N 37°43' E 023°41'9 9.0
2017-Feb-09 19:33N 37°49' E 023°33'10 9.7
2017-Feb-09 18:33N 37°51' E 023°21'9 9.2
2017-Feb-09 17:33N 37°54' E 023°09'4 3.5
2017-Feb-09 16:34N 37°55' E 023°05'0 0.0
2017-Feb-09 15:33N 37°55' E 023°05'0 0.0
2017-Feb-09 14:33N 37°55' E 023°05'0 0.0
2017-Feb-09 13:34N 37°55' E 023°05'0 0.0
2017-Feb-09 12:33N 37°55' E 023°05'0 0.0
2017-Feb-09 11:33N 37°55' E 023°05'0 0.0
2017-Feb-09 10:33N 37°55' E 023°05'1 0.8
2017-Feb-09 09:33N 37°54' E 023°06'0 0.4
2017-Feb-09 08:33N 37°55' E 023°06'7 7.3
2017-Feb-09 07:32N 37°49' E 023°12'1010.3
2017-Feb-09 06:34N 37°40' E 023°18'1010.3
2017-Feb-09 05:33N 37°39' E 023°31'1010.3
2017-Feb-09 04:33N 37°37' E 023°44'1310.3
2017-Feb-09 03:16N 37°35' E 024°01'8 9.7
2017-Feb-09 02:28N 37°33' E 024°10'38 9.7
2017-Feb-08 22:33N 37°20' E 024°55'10 9.8
2017-Feb-08 21:33N 37°18' E 025°07'10 9.7
2017-Feb-08 20:33N 37°16' E 025°19'18 9.1
2017-Feb-08 18:33N 37°12' E 025°41'  

Dump ship's entire track history